sensor_id;sensor_type;location;lat;lon;timestamp;temperature;humidity
21489;DHT22;10906;45.194;5.684;2023-02-28T06:01:44;3.00;93.60
21489;DHT22;10906;45.194;5.684;2023-02-28T06:04:31;4.30;94.20
21489;DHT22;10906;45.194;5.684;2023-02-28T06:07:16;3.00;93.50
21489;DHT22;10906;45.194;5.684;2023-02-28T06:10:13;1.60;93.70
21489;DHT22;10906;45.194;5.684;2023-02-28T06:13:00;3.50;94.00
21489;DHT22;10906;45.194;5.684;2023-02-28T06:15:46;2.90;93.60
21489;DHT22;10906;45.194;5.684;2023-02-28T06:18:31;3.00;93.90
21489;DHT22;10906;45.194;5.684;2023-02-28T06:21:15;2.90;93.60
21489;DHT22;10906;45.194;5.684;2023-02-28T06:23:59;2.80;93.70
21489;DHT22;10906;45.194;5.684;2023-02-28T06:26:44;3.20;93.80
21489;DHT22;10906;45.194;5.684;2023-02-28T06:29:28;2.80;93.80
21489;DHT22;10906;45.194;5.684;2023-02-28T06:32:13;2.80;93.80
21489;DHT22;10906;45.194;5.684;2023-02-28T06:34:57;2.80;94.00
21489;DHT22;10906;45.194;5.684;2023-02-28T06:37:42;2.80;94.00
21489;DHT22;10906;45.194;5.684;2023-02-28T06:40:28;2.70;94.00
21489;DHT22;10906;45.194;5.684;2023-02-28T06:43:11;3.00;94.10
21489;DHT22;10906;45.194;5.684;2023-02-28T06:45:59;2.70;93.90
21489;DHT22;10906;45.194;5.684;2023-02-28T06:48:44;2.70;93.90
21489;DHT22;10906;45.194;5.684;2023-02-28T06:51:29;3.50;94.20
21489;DHT22;10906;45.194;5.684;2023-02-28T06:54:13;2.70;94.10
21489;DHT22;10906;45.194;5.684;2023-02-28T06:56:58;2.70;94.10
21489;DHT22;10906;45.194;5.684;2023-02-28T06:59:43;3.30;94.30
21489;DHT22;10906;45.194;5.684;2023-02-28T07:02:28;2.70;94.50
21489;DHT22;10906;45.194;5.684;2023-02-28T07:05:13;3.70;94.60
21489;DHT22;10906;45.194;5.684;2023-02-28T07:07:57;2.70;94.10
21489;DHT22;10906;45.194;5.684;2023-02-28T07:10:42;2.70;94.10
21489;DHT22;10906;45.194;5.684;2023-02-28T07:13:26;2.80;94.00
21489;DHT22;10906;45.194;5.684;2023-02-28T07:16:11;3.00;94.00
21489;DHT22;10906;45.194;5.684;2023-02-28T07:18:55;2.90;94.10
21489;DHT22;10906;45.194;5.684;2023-02-28T07:21:40;3.50;94.80
21489;DHT22;10906;45.194;5.684;2023-02-28T07:24:25;4.00;94.90
21489;DHT22;10906;45.194;5.684;2023-02-28T07:27:12;2.90;94.10
21489;DHT22;10906;45.194;5.684;2023-02-28T07:29:57;3.00;94.40
21489;DHT22;10906;45.194;5.684;2023-02-28T07:32:44;3.00;94.40
21489;DHT22;10906;45.194;5.684;2023-02-28T07:35:29;2.70;94.40
21489;DHT22;10906;45.194;5.684;2023-02-28T07:38:13;3.20;94.40
21489;DHT22;10906;45.194;5.684;2023-02-28T07:40:57;3.30;94.20
21489;DHT22;10906;45.194;5.684;2023-02-28T07:43:42;3.10;94.10
21489;DHT22;10906;45.194;5.684;2023-02-28T07:46:28;3.90;94.40
21489;DHT22;10906;45.194;5.684;2023-02-28T07:49:21;3.90;94.60
21489;DHT22;10906;45.194;5.684;2023-02-28T07:52:09;3.30;94.20
21489;DHT22;10906;45.194;5.684;2023-02-28T07:54:54;4.30;94.30
21489;DHT22;10906;45.194;5.684;2023-02-28T07:57:39;3.40;94.00
21489;DHT22;10906;45.194;5.684;2023-02-28T08:00:23;3.40;94.10
21489;DHT22;10906;45.194;5.684;2023-02-28T08:03:13;4.10;94.20
21489;DHT22;10906;45.194;5.684;2023-02-28T08:05:58;3.50;93.80
21489;DHT22;10906;45.194;5.684;2023-02-28T08:08:42;3.50;93.90
21489;DHT22;10906;45.194;5.684;2023-02-28T08:11:28;3.70;93.80
21489;DHT22;10906;45.194;5.684;2023-02-28T08:14:13;3.70;93.70
21489;DHT22;10906;45.194;5.684;2023-02-28T08:16:58;4.60;94.00
21489;DHT22;10906;45.194;5.684;2023-02-28T08:19:45;3.70;93.60
21489;DHT22;10906;45.194;5.684;2023-02-28T08:22:30;3.80;93.50
21489;DHT22;10906;45.194;5.684;2023-02-28T08:25:14;4.60;93.80
21489;DHT22;10906;45.194;5.684;2023-02-28T08:27:59;2.60;92.90
21489;DHT22;10906;45.194;5.684;2023-02-28T08:30:43;3.90;93.40
21489;DHT22;10906;45.194;5.684;2023-02-28T08:33:28;4.20;93.50
21489;DHT22;10906;45.194;5.684;2023-02-28T08:36:13;3.90;93.50
21489;DHT22;10906;45.194;5.684;2023-02-28T08:38:57;4.50;93.30
21489;DHT22;10906;45.194;5.684;2023-02-28T08:41:43;4.50;93.60
21489;DHT22;10906;45.194;5.684;2023-02-28T08:44:28;4.10;93.20
21489;DHT22;10906;45.194;5.684;2023-02-28T08:47:13;4.10;93.00
21489;DHT22;10906;45.194;5.684;2023-02-28T08:49:57;4.50;93.40
21489;DHT22;10906;45.194;5.684;2023-02-28T08:52:44;4.30;93.10
21489;DHT22;10906;45.194;5.684;2023-02-28T08:55:29;4.30;93.00
21489;DHT22;10906;45.194;5.684;2023-02-28T08:58:13;4.40;93.00
21489;DHT22;10906;45.194;5.684;2023-02-28T09:00:58;5.10;93.20
21489;DHT22;10906;45.194;5.684;2023-02-28T09:03:43;4.40;92.70
21489;DHT22;10906;45.194;5.684;2023-02-28T09:06:28;5.30;93.20
21489;DHT22;10906;45.194;5.684;2023-02-28T09:09:13;4.60;93.10
21489;DHT22;10906;45.194;5.684;2023-02-28T09:11:58;4.40;92.70
21489;DHT22;10906;45.194;5.684;2023-02-28T09:14:42;4.50;93.00
21489;DHT22;10906;45.194;5.684;2023-02-28T09:17:27;4.50;92.80
21489;DHT22;10906;45.194;5.684;2023-02-28T09:20:12;4.50;92.70
21489;DHT22;10906;45.194;5.684;2023-02-28T09:22:56;4.50;92.70
21489;DHT22;10906;45.194;5.684;2023-02-28T09:25:49;4.50;92.70
21489;DHT22;10906;45.194;5.684;2023-02-28T09:28:33;3.20;92.10
21489;DHT22;10906;45.194;5.684;2023-02-28T09:31:25;4.50;92.90
21489;DHT22;10906;45.194;5.684;2023-02-28T09:34:09;4.60;92.60
21489;DHT22;10906;45.194;5.684;2023-02-28T09:36:54;4.60;92.90
21489;DHT22;10906;45.194;5.684;2023-02-28T09:39:38;4.60;92.80
21489;DHT22;10906;45.194;5.684;2023-02-28T09:42:32;4.90;92.90
21489;DHT22;10906;45.194;5.684;2023-02-28T09:45:33;4.70;92.60
21489;DHT22;10906;45.194;5.684;2023-02-28T09:48:28;4.70;92.70
21489;DHT22;10906;45.194;5.684;2023-02-28T09:54:22;4.80;92.30
21489;DHT22;10906;45.194;5.684;2023-02-28T10:03:44;4.90;92.10
21489;DHT22;10906;45.194;5.684;2023-02-28T10:06:07;4.90;92.00
21489;DHT22;10906;45.194;5.684;2023-02-28T10:09:09;4.90;92.10
21489;DHT22;10906;45.194;5.684;2023-02-28T10:12:03;5.00;92.30
21489;DHT22;10906;45.194;5.684;2023-02-28T10:14:50;5.10;92.10
21489;DHT22;10906;45.194;5.684;2023-02-28T10:17:41;5.10;92.10
21489;DHT22;10906;45.194;5.684;2023-02-28T10:20:28;5.20;92.00
21489;DHT22;10906;45.194;5.684;2023-02-28T10:26:13;5.20;92.20
21489;DHT22;10906;45.194;5.684;2023-02-28T10:28:57;5.30;92.20
21489;DHT22;10906;45.194;5.684;2023-02-28T10:31:42;5.20;92.20
21489;DHT22;10906;45.194;5.684;2023-02-28T10:34:26;5.50;92.30
21489;DHT22;10906;45.194;5.684;2023-02-28T10:37:12;5.30;92.50
21489;DHT22;10906;45.194;5.684;2023-02-28T10:39:57;5.40;92.40
21489;DHT22;10906;45.194;5.684;2023-02-28T10:42:42;5.50;92.40
21489;DHT22;10906;45.194;5.684;2023-02-28T10:45:38;5.50;92.00
21489;DHT22;10906;45.194;5.684;2023-02-28T10:48:29;5.50;91.90
21489;DHT22;10906;45.194;5.684;2023-02-28T10:51:16;5.70;92.00
21489;DHT22;10906;45.194;5.684;2023-02-28T10:54:00;5.50;91.50
21489;DHT22;10906;45.194;5.684;2023-02-28T10:56:45;5.60;92.20
21489;DHT22;10906;45.194;5.684;2023-02-28T10:59:31;5.70;92.00
21489;DHT22;10906;45.194;5.684;2023-02-28T11:05:31;5.70;91.80
21489;DHT22;10906;45.194;5.684;2023-02-28T11:08:17;5.70;91.50
21489;DHT22;10906;45.194;5.684;2023-02-28T11:11:04;5.80;91.60
21489;DHT22;10906;45.194;5.684;2023-02-28T11:14:04;5.90;91.60
21489;DHT22;10906;45.194;5.684;2023-02-28T11:16:50;6.80;91.80
21489;DHT22;10906;45.194;5.684;2023-02-28T11:19:40;6.00;91.40
21489;DHT22;10906;45.194;5.684;2023-02-28T11:22:28;6.00;91.30
21489;DHT22;10906;45.194;5.684;2023-02-28T11:25:22;6.00;91.00
21489;DHT22;10906;45.194;5.684;2023-02-28T11:28:32;6.00;91.20
21489;DHT22;10906;45.194;5.684;2023-02-28T11:31:18;6.00;90.80
21489;DHT22;10906;45.194;5.684;2023-02-28T11:34:23;6.10;91.10
21489;DHT22;10906;45.194;5.684;2023-02-28T11:37:13;6.10;91.00
21489;DHT22;10906;45.194;5.684;2023-02-28T11:39:58;6.10;91.30
21489;DHT22;10906;45.194;5.684;2023-02-28T11:52:02;6.50;90.40
21489;DHT22;10906;45.194;5.684;2023-02-28T12:04:03;6.50;90.40
21489;DHT22;10906;45.194;5.684;2023-02-28T12:09:59;6.50;90.30
21489;DHT22;10906;45.194;5.684;2023-02-28T12:22:05;6.50;90.40
21489;DHT22;10906;45.194;5.684;2023-02-28T12:32:12;6.70;90.40
21489;DHT22;10906;45.194;5.684;2023-02-28T12:38:29;6.70;90.00
21489;DHT22;10906;45.194;5.684;2023-02-28T12:44:03;6.70;89.80
21489;DHT22;10906;45.194;5.684;2023-02-28T12:46:51;6.80;89.10
21489;DHT22;10906;45.194;5.684;2023-02-28T12:49:47;6.80;89.70
21489;DHT22;10906;45.194;5.684;2023-02-28T12:58:31;6.90;90.10
21489;DHT22;10906;45.194;5.684;2023-02-28T13:10:38;7.00;88.80
21489;DHT22;10906;45.194;5.684;2023-02-28T13:13:27;6.90;88.60
21489;DHT22;10906;45.194;5.684;2023-02-28T13:16:14;6.90;89.40
21489;DHT22;10906;45.194;5.684;2023-02-28T13:19:10;6.90;89.60
21489;DHT22;10906;45.194;5.684;2023-02-28T13:21:55;7.00;89.10
21489;DHT22;10906;45.194;5.684;2023-02-28T13:24:47;7.20;88.90
21489;DHT22;10906;45.194;5.684;2023-02-28T13:36:41;7.50;88.00
21489;DHT22;10906;45.194;5.684;2023-02-28T13:50:43;7.50;88.00
21489;DHT22;10906;45.194;5.684;2023-02-28T13:53:41;7.40;87.60
21489;DHT22;10906;45.194;5.684;2023-02-28T14:05:33;7.40;87.10
21489;DHT22;10906;45.194;5.684;2023-02-28T14:08:21;7.30;87.60
21489;DHT22;10906;45.194;5.684;2023-02-28T14:11:15;7.30;87.90
21489;DHT22;10906;45.194;5.684;2023-02-28T14:14:09;7.30;87.60
21489;DHT22;10906;45.194;5.684;2023-02-28T14:17:15;7.30;87.90
21489;DHT22;10906;45.194;5.684;2023-02-28T14:20:00;7.40;87.60
21489;DHT22;10906;45.194;5.684;2023-02-28T14:23:15;7.40;87.40
21489;DHT22;10906;45.194;5.684;2023-02-28T14:32:25;7.40;86.70
21489;DHT22;10906;45.194;5.684;2023-02-28T14:41:31;7.50;86.10
21489;DHT22;10906;45.194;5.684;2023-02-28T14:47:01;7.30;86.60
21489;DHT22;10906;45.194;5.684;2023-02-28T14:49:53;7.20;86.90
21489;DHT22;10906;45.194;5.684;2023-02-28T14:52:38;7.10;86.90
21489;DHT22;10906;45.194;5.684;2023-02-28T14:55:29;7.00;86.90
21489;DHT22;10906;45.194;5.684;2023-02-28T15:01:10;7.00;87.40
21489;DHT22;10906;45.194;5.684;2023-02-28T15:04:06;6.90;87.30
21489;DHT22;10906;45.194;5.684;2023-02-28T15:07:10;6.90;87.20
21489;DHT22;10906;45.194;5.684;2023-02-28T15:10:30;6.80;86.50
21489;DHT22;10906;45.194;5.684;2023-02-28T15:13:15;6.70;86.90
21489;DHT22;10906;45.194;5.684;2023-02-28T15:16:08;6.70;87.50
21489;DHT22;10906;45.194;5.684;2023-02-28T15:19:00;6.60;87.70
21489;DHT22;10906;45.194;5.684;2023-02-28T15:21:49;6.60;87.60
21489;DHT22;10906;45.194;5.684;2023-02-28T15:24:37;6.60;87.50
21489;DHT22;10906;45.194;5.684;2023-02-28T15:27:29;6.60;87.80
21489;DHT22;10906;45.194;5.684;2023-02-28T15:30:21;6.60;87.80
21489;DHT22;10906;45.194;5.684;2023-02-28T15:36:15;6.50;87.70
21489;DHT22;10906;45.194;5.684;2023-02-28T15:39:01;6.40;87.50
21489;DHT22;10906;45.194;5.684;2023-02-28T15:41:45;6.40;88.50
21489;DHT22;10906;45.194;5.684;2023-02-28T15:44:33;6.30;87.70
21489;DHT22;10906;45.194;5.684;2023-02-28T15:47:26;6.30;87.50
21489;DHT22;10906;45.194;5.684;2023-02-28T15:50:13;6.30;87.50
21489;DHT22;10906;45.194;5.684;2023-02-28T15:52:58;6.30;87.90
21489;DHT22;10906;45.194;5.684;2023-02-28T15:55:44;6.30;88.20
21489;DHT22;10906;45.194;5.684;2023-02-28T15:58:29;6.20;87.90
21489;DHT22;10906;45.194;5.684;2023-02-28T16:01:23;6.20;87.90
21489;DHT22;10906;45.194;5.684;2023-02-28T16:04:17;6.20;87.70
21489;DHT22;10906;45.194;5.684;2023-02-28T16:07:11;6.10;87.50
21489;DHT22;10906;45.194;5.684;2023-02-28T16:09:56;6.10;87.40
21489;DHT22;10906;45.194;5.684;2023-02-28T16:12:41;6.00;87.80
21489;DHT22;10906;45.194;5.684;2023-02-28T16:15:31;6.10;87.50
21489;DHT22;10906;45.194;5.684;2023-02-28T16:18:17;6.00;87.60
21489;DHT22;10906;45.194;5.684;2023-02-28T16:21:02;6.00;87.70
21489;DHT22;10906;45.194;5.684;2023-02-28T16:23:46;5.90;88.60
21489;DHT22;10906;45.194;5.684;2023-02-28T16:26:31;5.90;88.20
21489;DHT22;10906;45.194;5.684;2023-02-28T16:29:24;6.00;88.10
21489;DHT22;10906;45.194;5.684;2023-02-28T16:32:14;5.80;87.90
21489;DHT22;10906;45.194;5.684;2023-02-28T16:34:58;5.80;88.20
21489;DHT22;10906;45.194;5.684;2023-02-28T16:37:43;5.80;88.30
21489;DHT22;10906;45.194;5.684;2023-02-28T16:40:33;5.80;88.80
21489;DHT22;10906;45.194;5.684;2023-02-28T16:43:23;5.80;88.60
21489;DHT22;10906;45.194;5.684;2023-02-28T16:46:10;5.80;88.40
21489;DHT22;10906;45.194;5.684;2023-02-28T16:48:55;5.80;88.50
21489;DHT22;10906;45.194;5.684;2023-02-28T16:51:39;5.70;88.50
21489;DHT22;10906;45.194;5.684;2023-02-28T16:54:24;5.70;88.50
21489;DHT22;10906;45.194;5.684;2023-02-28T16:57:19;5.20;88.40
21489;DHT22;10906;45.194;5.684;2023-02-28T17:00:07;5.70;89.20
21489;DHT22;10906;45.194;5.684;2023-02-28T17:02:52;5.70;89.30
21489;DHT22;10906;45.194;5.684;2023-02-28T17:05:38;5.70;89.20
21489;DHT22;10906;45.194;5.684;2023-02-28T17:08:23;5.70;88.80
21489;DHT22;10906;45.194;5.684;2023-02-28T17:11:08;5.60;88.50
21489;DHT22;10906;45.194;5.684;2023-02-28T17:13:52;5.60;88.70
21489;DHT22;10906;45.194;5.684;2023-02-28T17:16:38;5.60;88.80
21489;DHT22;10906;45.194;5.684;2023-02-28T17:19:26;5.60;88.80
21489;DHT22;10906;45.194;5.684;2023-02-28T17:22:11;5.60;88.70
21489;DHT22;10906;45.194;5.684;2023-02-28T17:24:56;5.60;88.60
21489;DHT22;10906;45.194;5.684;2023-02-28T17:27:41;5.50;89.10
21489;DHT22;10906;45.194;5.684;2023-02-28T17:30:27;5.60;89.10
21489;DHT22;10906;45.194;5.684;2023-02-28T17:33:13;5.60;89.20
21489;DHT22;10906;45.194;5.684;2023-02-28T17:35:57;5.60;89.30
21489;DHT22;10906;45.194;5.684;2023-02-28T17:38:41;5.50;89.90
21489;DHT22;10906;45.194;5.684;2023-02-28T17:41:26;5.50;89.90
21489;DHT22;10906;45.194;5.684;2023-02-28T17:44:10;5.50;89.70
21489;DHT22;10906;45.194;5.684;2023-02-28T17:46:55;5.50;89.80
21489;DHT22;10906;45.194;5.684;2023-02-28T17:49:40;5.50;90.20
21489;DHT22;10906;45.194;5.684;2023-02-28T17:52:24;5.50;89.90
21489;DHT22;10906;45.194;5.684;2023-02-28T17:55:09;5.50;89.90
21489;DHT22;10906;45.194;5.684;2023-02-28T17:57:54;5.50;89.90
21489;DHT22;10906;45.194;5.684;2023-02-28T18:00:38;5.50;89.60
21489;DHT22;10906;45.194;5.684;2023-02-28T18:03:23;5.50;89.70
21489;DHT22;10906;45.194;5.684;2023-02-28T18:06:28;5.50;90.00
21489;DHT22;10906;45.194;5.684;2023-02-28T18:09:16;5.50;89.90
21489;DHT22;10906;45.194;5.684;2023-02-28T18:12:00;5.50;90.10
21489;DHT22;10906;45.194;5.684;2023-02-28T18:14:45;5.50;89.50
21489;DHT22;10906;45.194;5.684;2023-02-28T18:17:31;5.40;89.40
21489;DHT22;10906;45.194;5.684;2023-02-28T18:20:16;5.50;89.60
21489;DHT22;10906;45.194;5.684;2023-02-28T18:23:01;5.40;89.50
21489;DHT22;10906;45.194;5.684;2023-02-28T18:25:45;5.40;89.50
21489;DHT22;10906;45.194;5.684;2023-02-28T18:28:29;5.40;89.50
21489;DHT22;10906;45.194;5.684;2023-02-28T18:31:16;5.40;89.20
21489;DHT22;10906;45.194;5.684;2023-02-28T18:34:00;5.40;89.50
21489;DHT22;10906;45.194;5.684;2023-02-28T18:36:46;5.40;89.40
21489;DHT22;10906;45.194;5.684;2023-02-28T18:39:31;5.40;89.60
21489;DHT22;10906;45.194;5.684;2023-02-28T18:42:16;5.40;89.40
21489;DHT22;10906;45.194;5.684;2023-02-28T18:45:00;5.40;89.50
21489;DHT22;10906;45.194;5.684;2023-02-28T18:47:45;5.40;88.80
21489;DHT22;10906;45.194;5.684;2023-02-28T18:50:29;5.40;89.00
21489;DHT22;10906;45.194;5.684;2023-02-28T18:53:14;5.40;88.70
21489;DHT22;10906;45.194;5.684;2023-02-28T18:56:02;5.40;88.80
21489;DHT22;10906;45.194;5.684;2023-02-28T18:58:47;5.40;88.50
21489;DHT22;10906;45.194;5.684;2023-02-28T19:01:31;5.40;88.40
21489;DHT22;10906;45.194;5.684;2023-02-28T19:04:16;5.40;88.30
21489;DHT22;10906;45.194;5.684;2023-02-28T19:07:01;5.40;88.20
21489;DHT22;10906;45.194;5.684;2023-02-28T19:09:46;5.40;88.70
21489;DHT22;10906;45.194;5.684;2023-02-28T19:12:38;5.30;88.40
21489;DHT22;10906;45.194;5.684;2023-02-28T19:15:22;5.30;88.20
21489;DHT22;10906;45.194;5.684;2023-02-28T19:18:07;5.40;88.20
21489;DHT22;10906;45.194;5.684;2023-02-28T19:20:51;5.40;88.20
21489;DHT22;10906;45.194;5.684;2023-02-28T19:23:37;5.40;88.20
21489;DHT22;10906;45.194;5.684;2023-02-28T19:26:23;5.30;88.10
21489;DHT22;10906;45.194;5.684;2023-02-28T19:29:08;5.30;88.50
21489;DHT22;10906;45.194;5.684;2023-02-28T19:31:52;5.30;88.30
21489;DHT22;10906;45.194;5.684;2023-02-28T19:34:36;5.30;88.60
21489;DHT22;10906;45.194;5.684;2023-02-28T19:37:20;5.30;88.20
21489;DHT22;10906;45.194;5.684;2023-02-28T19:40:06;5.30;88.40
21489;DHT22;10906;45.194;5.684;2023-02-28T19:42:59;5.30;88.40
21489;DHT22;10906;45.194;5.684;2023-02-28T19:45:46;5.30;88.70
21489;DHT22;10906;45.194;5.684;2023-02-28T19:48:32;5.30;88.70
21489;DHT22;10906;45.194;5.684;2023-02-28T19:51:16;5.20;88.40
21489;DHT22;10906;45.194;5.684;2023-02-28T19:54:01;5.20;88.60
21489;DHT22;10906;45.194;5.684;2023-02-28T19:56:46;5.20;88.60
21489;DHT22;10906;45.194;5.684;2023-02-28T19:59:31;5.20;89.20
21489;DHT22;10906;45.194;5.684;2023-02-28T20:02:17;5.30;90.00
21489;DHT22;10906;45.194;5.684;2023-02-28T20:05:02;5.60;89.60
21489;DHT22;10906;45.194;5.684;2023-02-28T20:07:47;5.20;89.10
21489;DHT22;10906;45.194;5.684;2023-02-28T20:10:33;5.20;89.10
21489;DHT22;10906;45.194;5.684;2023-02-28T20:13:17;5.20;89.30
21489;DHT22;10906;45.194;5.684;2023-02-28T20:16:04;5.10;89.40
21489;DHT22;10906;45.194;5.684;2023-02-28T20:18:52;5.10;89.30
21489;DHT22;10906;45.194;5.684;2023-02-28T20:21:37;5.10;89.30
21489;DHT22;10906;45.194;5.684;2023-02-28T20:24:22;5.10;89.80
21489;DHT22;10906;45.194;5.684;2023-02-28T20:27:09;5.10;89.70
21489;DHT22;10906;45.194;5.684;2023-02-28T20:29:53;5.10;89.80
21489;DHT22;10906;45.194;5.684;2023-02-28T20:32:37;5.10;90.00
21489;DHT22;10906;45.194;5.684;2023-02-28T20:35:22;5.10;90.00
21489;DHT22;10906;45.194;5.684;2023-02-28T20:38:07;5.60;90.10
21489;DHT22;10906;45.194;5.684;2023-02-28T20:40:57;5.10;90.00
21489;DHT22;10906;45.194;5.684;2023-02-28T20:43:42;5.00;90.00
21489;DHT22;10906;45.194;5.684;2023-02-28T20:46:27;5.00;90.10
21489;DHT22;10906;45.194;5.684;2023-02-28T20:49:12;5.00;90.10
21489;DHT22;10906;45.194;5.684;2023-02-28T20:51:58;5.00;90.40
21489;DHT22;10906;45.194;5.684;2023-02-28T20:54:43;5.00;90.40
21489;DHT22;10906;45.194;5.684;2023-02-28T20:57:28;5.00;90.40
21489;DHT22;10906;45.194;5.684;2023-02-28T21:00:13;5.00;90.40
21489;DHT22;10906;45.194;5.684;2023-02-28T21:03:03;5.00;90.50
21489;DHT22;10906;45.194;5.684;2023-02-28T21:05:48;4.90;90.50
21489;DHT22;10906;45.194;5.684;2023-02-28T21:08:33;4.90;90.50
21489;DHT22;10906;45.194;5.684;2023-02-28T21:11:26;4.90;90.60
21489;DHT22;10906;45.194;5.684;2023-02-28T21:14:14;4.90;90.70
21489;DHT22;10906;45.194;5.684;2023-02-28T21:16:58;4.90;90.60
21489;DHT22;10906;45.194;5.684;2023-02-28T21:19:43;4.90;90.70
21489;DHT22;10906;45.194;5.684;2023-02-28T21:22:27;4.90;90.70
21489;DHT22;10906;45.194;5.684;2023-02-28T21:25:11;5.30;90.90
21489;DHT22;10906;45.194;5.684;2023-02-28T21:27:56;4.90;90.90
21489;DHT22;10906;45.194;5.684;2023-02-28T21:30:40;4.90;90.80
21489;DHT22;10906;45.194;5.684;2023-02-28T21:33:24;4.80;90.90
21489;DHT22;10906;45.194;5.684;2023-02-28T21:36:11;4.90;91.00
21489;DHT22;10906;45.194;5.684;2023-02-28T21:38:58;4.80;90.90
21489;DHT22;10906;45.194;5.684;2023-02-28T21:41:43;4.80;90.90
21489;DHT22;10906;45.194;5.684;2023-02-28T21:44:29;4.90;91.10
21489;DHT22;10906;45.194;5.684;2023-02-28T21:47:14;4.80;91.10
21489;DHT22;10906;45.194;5.684;2023-02-28T21:49:58;4.80;91.10
21489;DHT22;10906;45.194;5.684;2023-02-28T21:52:43;4.80;91.10
21489;DHT22;10906;45.194;5.684;2023-02-28T21:55:28;4.80;91.10
21489;DHT22;10906;45.194;5.684;2023-02-28T21:58:12;4.80;91.10
21489;DHT22;10906;45.194;5.684;2023-02-28T22:01:12;4.70;91.00
21489;DHT22;10906;45.194;5.684;2023-02-28T22:03:58;4.70;91.10
21489;DHT22;10906;45.194;5.684;2023-02-28T22:06:44;4.70;91.00
21489;DHT22;10906;45.194;5.684;2023-02-28T22:09:28;4.70;91.10
21489;DHT22;10906;45.194;5.684;2023-02-28T22:12:13;4.70;91.10
21489;DHT22;10906;45.194;5.684;2023-02-28T22:14:57;4.70;91.10
21489;DHT22;10906;45.194;5.684;2023-02-28T22:17:42;4.70;91.10
21489;DHT22;10906;45.194;5.684;2023-02-28T22:20:27;4.60;91.10
21489;DHT22;10906;45.194;5.684;2023-02-28T22:23:11;4.60;91.10
21489;DHT22;10906;45.194;5.684;2023-02-28T22:25:56;4.60;91.20
21489;DHT22;10906;45.194;5.684;2023-02-28T22:28:43;4.60;91.20
21489;DHT22;10906;45.194;5.684;2023-02-28T22:31:30;4.60;91.40
21489;DHT22;10906;45.194;5.684;2023-02-28T22:34:15;4.60;91.30
21489;DHT22;10906;45.194;5.684;2023-02-28T22:36:59;4.60;91.40
21489;DHT22;10906;45.194;5.684;2023-02-28T22:39:43;4.60;91.40
21489;DHT22;10906;45.194;5.684;2023-02-28T22:42:32;4.60;91.40
21489;DHT22;10906;45.194;5.684;2023-02-28T22:45:17;4.60;91.40
21489;DHT22;10906;45.194;5.684;2023-02-28T22:48:03;4.60;91.50
21489;DHT22;10906;45.194;5.684;2023-02-28T22:50:48;4.60;91.50
21489;DHT22;10906;45.194;5.684;2023-02-28T22:53:34;4.60;91.40
21489;DHT22;10906;45.194;5.684;2023-02-28T22:56:21;4.60;91.70
21489;DHT22;10906;45.194;5.684;2023-02-28T22:59:06;4.60;91.80
